createdAt,value
2023-04-10T00:00:38.168Z,15.00
2023-04-10T00:03:06.111Z,14.63
2023-04-10T00:05:33.347Z,15.30
2023-04-10T00:08:00.970Z,12.52
2023-04-10T00:10:30.800Z,14.57
2023-04-10T00:12:59.153Z,14.27
2023-04-10T00:15:26.112Z,14.57
2023-04-10T00:17:55.452Z,14.13
2023-04-10T00:20:23.494Z,13.68
2023-04-10T00:22:51.540Z,14.88
2023-04-10T00:25:18.828Z,13.75
2023-04-10T00:27:46.055Z,12.80
2023-04-10T00:30:12.975Z,12.48
2023-04-10T00:32:40.196Z,9.85
2023-04-10T00:35:09.020Z,12.32
2023-04-10T00:37:36.595Z,10.05
2023-04-10T00:40:04.900Z,9.48
2023-04-10T00:42:32.454Z,9.68
2023-04-10T00:45:00.192Z,9.90
2023-04-10T00:47:28.784Z,11.65
2023-04-10T00:49:56.273Z,9.10
2023-04-10T00:52:24.907Z,8.98
2023-04-10T00:54:52.828Z,10.30
2023-04-10T00:57:19.964Z,8.63
2023-04-10T00:59:48.421Z,11.45
2023-04-10T01:02:15.693Z,10.47
2023-04-10T01:04:42.879Z,10.07
2023-04-10T01:07:21.634Z,11.07
2023-04-10T01:10:07.262Z,11.82
2023-04-10T01:13:06.759Z,10.98
2023-04-10T01:15:48.081Z,10.25
2023-04-10T01:18:24.385Z,24.48
2023-04-10T01:20:51.420Z,11.48
2023-04-10T01:23:49.662Z,11.45
2023-04-10T01:26:20.992Z,12.88
2023-04-10T01:29:01.484Z,12.25
2023-04-10T01:31:41.750Z,13.43
2023-04-10T01:36:52.224Z,11.65
2023-04-10T01:39:21.494Z,12.35
2023-04-10T01:41:52.759Z,12.20
2023-04-10T01:44:30.070Z,12.02
2023-04-10T01:46:58.754Z,12.10
2023-04-10T01:49:27.772Z,11.80
2023-04-10T01:52:02.434Z,12.65
2023-04-10T01:54:32.828Z,12.60
2023-04-10T01:57:02.404Z,15.65
2023-04-10T01:59:31.391Z,12.75
2023-04-10T02:02:00.985Z,13.55
2023-04-10T02:07:12.912Z,12.35
2023-04-10T02:09:58.223Z,12.82
2023-04-10T02:12:36.948Z,12.23
2023-04-10T02:15:06.638Z,13.68
2023-04-10T02:17:36.239Z,12.98
2023-04-10T02:20:06.711Z,11.90
2023-04-10T02:22:34.324Z,12.73
2023-04-10T02:25:04.837Z,10.20
2023-04-10T02:27:36.454Z,9.85
2023-04-10T02:30:04.502Z,10.88
2023-04-10T02:32:33.770Z,10.45
2023-04-10T02:35:03.252Z,10.73
2023-04-10T02:37:31.393Z,10.63
2023-04-10T02:40:01.188Z,10.52
2023-04-10T02:42:34.975Z,11.23
2023-04-10T02:45:02.011Z,11.50
2023-04-10T02:47:37.032Z,10.02
2023-04-10T02:50:04.406Z,11.25
2023-04-10T02:52:35.428Z,11.35
2023-04-10T02:55:02.542Z,12.25
2023-04-10T02:57:35.066Z,11.45
2023-04-10T03:00:03.212Z,9.77
2023-04-10T03:02:35.510Z,11.90
2023-04-10T03:05:12.504Z,11.35
2023-04-10T03:07:39.476Z,11.15
2023-04-10T03:10:07.025Z,11.45
2023-04-10T03:12:34.380Z,12.18
2023-04-10T03:15:01.347Z,12.40
2023-04-10T03:17:30.373Z,12.40
2023-04-10T03:19:57.547Z,12.63
2023-04-10T03:22:25.063Z,12.15
2023-04-10T03:24:52.773Z,12.55
2023-04-10T03:27:20.060Z,12.18
2023-04-10T03:29:46.999Z,11.65
2023-04-10T03:32:14.205Z,11.60
2023-04-10T03:34:41.250Z,11.63
2023-04-10T03:37:08.310Z,12.27
2023-04-10T03:39:37.312Z,12.60
2023-04-10T03:42:04.388Z,13.52
2023-04-10T03:44:31.723Z,14.70
2023-04-10T03:46:59.021Z,15.55
2023-04-10T03:49:26.133Z,14.25
2023-04-10T03:52:01.780Z,15.75
2023-04-10T03:54:29.091Z,17.75
2023-04-10T03:56:57.959Z,17.02
2023-04-10T03:59:37.954Z,17.98
2023-04-10T04:02:10.185Z,17.05
2023-04-10T04:04:37.706Z,15.93
2023-04-10T04:07:23.230Z,18.75
2023-04-10T04:10:22.576Z,17.17
2023-04-10T04:13:08.481Z,16.33
2023-04-10T04:15:52.769Z,17.45
2023-04-10T04:18:42.482Z,19.80
2023-04-10T04:21:20.029Z,17.38
2023-04-10T04:24:04.101Z,19.92
2023-04-10T04:26:50.006Z,20.67
2023-04-10T04:29:35.405Z,17.17
2023-04-10T04:32:10.988Z,20.42
2023-04-10T04:34:55.629Z,18.75
2023-04-10T04:37:32.704Z,19.17
2023-04-10T04:40:32.337Z,18.73
2023-04-10T04:43:08.317Z,18.10
2023-04-10T04:45:47.756Z,19.55
2023-04-10T04:48:35.897Z,16.00
2023-04-10T04:51:15.611Z,17.88
2023-04-10T04:53:50.346Z,18.85
2023-04-10T04:56:36.169Z,15.65
2023-04-10T04:59:23.888Z,16.45
2023-04-10T05:02:00.481Z,19.15
2023-04-10T05:04:46.318Z,17.73
2023-04-10T05:07:42.341Z,20.63
2023-04-10T05:10:35.494Z,17.83
2023-04-10T05:13:02.506Z,25.05
2023-04-10T05:15:39.499Z,27.05
2023-04-10T05:18:23.752Z,16.10
2023-04-10T05:21:17.266Z,17.55
2023-04-10T05:24:07.003Z,15.57
2023-04-10T05:26:58.455Z,14.80
2023-04-10T05:29:44.109Z,15.27
2023-04-10T05:32:43.282Z,14.70
2023-04-10T05:35:26.089Z,11.15
2023-04-10T05:38:11.354Z,12.93
2023-04-10T05:40:46.583Z,12.43
2023-04-10T05:43:32.429Z,12.20
2023-04-10T05:46:08.568Z,29.52
2023-04-10T05:48:49.004Z,14.70
2023-04-10T05:51:42.530Z,12.50
2023-04-10T05:54:18.542Z,13.45
2023-04-10T05:57:25.989Z,16.17
2023-04-10T06:00:08.364Z,14.45
2023-04-10T06:02:42.458Z,13.60
2023-04-10T06:05:17.289Z,14.75
2023-04-10T06:07:45.929Z,14.73
2023-04-10T06:10:14.636Z,15.98
2023-04-10T06:12:44.864Z,17.75
2023-04-10T06:15:13.760Z,14.98
2023-04-10T06:17:44.753Z,16.92
2023-04-10T06:20:12.352Z,17.50
2023-04-10T06:22:41.391Z,18.48
2023-04-10T06:25:10.079Z,16.50
2023-04-10T06:27:37.537Z,16.98
2023-04-10T06:30:10.087Z,19.33
2023-04-10T06:32:40.540Z,16.67
2023-04-10T06:35:08.437Z,16.23
2023-04-10T06:37:35.545Z,17.42
2023-04-10T06:40:09.347Z,20.00
2023-04-10T06:42:37.481Z,16.52
2023-04-10T06:45:13.480Z,17.75
2023-04-10T06:47:40.888Z,16.58
2023-04-10T06:50:08.040Z,17.55
2023-04-10T06:52:34.975Z,17.58
2023-04-10T06:55:05.335Z,17.45
2023-04-10T06:57:33.608Z,16.90
2023-04-10T07:00:03.206Z,18.83
2023-04-10T07:02:30.855Z,18.65
2023-04-10T07:04:58.040Z,17.20
2023-04-10T07:07:25.784Z,19.02
2023-04-10T07:09:52.800Z,16.90
2023-04-10T07:12:19.714Z,17.42
2023-04-10T07:14:46.921Z,18.23
2023-04-10T07:17:13.944Z,17.85
2023-04-10T07:19:41.106Z,18.65
2023-04-10T07:22:08.843Z,17.35
2023-04-10T07:24:35.802Z,15.70
2023-04-10T07:27:03.661Z,16.38
2023-04-10T07:29:31.462Z,16.55
2023-04-10T07:31:58.924Z,18.05
2023-04-10T07:34:26.059Z,20.10
2023-04-10T07:36:55.447Z,15.93
2023-04-10T07:39:22.533Z,38.88
2023-04-10T07:41:49.448Z,20.05
2023-04-10T07:44:17.711Z,17.67
2023-04-10T07:46:44.833Z,18.17
2023-04-10T07:49:12.529Z,19.63
2023-04-10T07:51:39.712Z,17.23
2023-04-10T07:54:06.711Z,17.20
2023-04-10T07:56:34.207Z,19.52
2023-04-10T07:59:01.575Z,18.20
2023-04-10T08:01:31.836Z,17.92
2023-04-10T08:04:10.682Z,17.83
2023-04-10T08:06:38.068Z,19.10
2023-04-10T08:09:05.267Z,20.38
2023-04-10T08:11:37.951Z,19.73
2023-04-10T08:14:09.066Z,18.75
2023-04-10T08:16:36.931Z,18.42
2023-04-10T08:19:04.408Z,16.55
2023-04-10T08:21:34.514Z,19.20
2023-04-10T08:24:03.110Z,16.67
2023-04-10T08:26:30.316Z,16.98
2023-04-10T08:29:00.059Z,20.52
2023-04-10T08:31:28.552Z,19.30
2023-04-10T08:33:56.867Z,19.38
2023-04-10T08:36:24.499Z,18.30
2023-04-10T08:38:51.439Z,15.90
2023-04-10T08:41:20.094Z,16.67
2023-04-10T08:43:47.603Z,16.70
2023-04-10T08:46:15.181Z,16.85
2023-04-10T08:49:06.326Z,17.25
2023-04-10T08:51:46.267Z,19.20
2023-04-10T08:54:25.602Z,16.42
2023-04-10T08:56:54.246Z,17.77
2023-04-10T08:59:21.540Z,15.80
2023-04-10T09:01:49.493Z,16.10
2023-04-10T09:04:19.791Z,14.75
2023-04-10T09:06:47.075Z,16.75
2023-04-10T09:09:14.077Z,20.27
2023-04-10T09:11:56.140Z,18.50
2023-04-10T09:14:32.035Z,15.98
2023-04-10T09:17:25.132Z,15.32
2023-04-10T09:19:53.916Z,16.23
2023-04-10T09:22:35.740Z,13.80
2023-04-10T09:25:04.419Z,15.85
2023-04-10T09:27:37.287Z,13.45
2023-04-10T09:30:05.571Z,14.05
2023-04-10T09:32:40.513Z,14.27
2023-04-10T09:35:08.866Z,14.77
2023-04-10T09:37:37.022Z,14.77
2023-04-10T09:40:04.897Z,13.55
2023-04-10T09:42:39.590Z,14.77
2023-04-10T09:45:07.116Z,23.60
2023-04-10T09:47:34.470Z,30.33
2023-04-10T09:50:01.969Z,14.43
2023-04-10T09:52:32.313Z,11.82
2023-04-10T09:55:04.784Z,12.20
2023-04-10T09:57:35.084Z,13.25
2023-04-10T10:00:06.127Z,12.35
2023-04-10T10:02:40.105Z,13.73
2023-04-10T10:05:08.363Z,13.63
2023-04-10T10:07:36.030Z,13.05
2023-04-10T10:10:04.018Z,13.02
2023-04-10T10:12:39.991Z,14.05
2023-04-10T10:15:33.175Z,12.55
2023-04-10T10:18:19.038Z,12.25
2023-04-10T10:20:47.170Z,13.77
2023-04-10T10:23:16.201Z,14.55
2023-04-10T10:25:44.857Z,13.57
2023-04-10T10:28:14.777Z,12.00
2023-04-10T10:30:42.684Z,11.88
2023-04-10T10:33:13.960Z,13.27
2023-04-10T10:35:44.570Z,13.80
2023-04-10T10:38:12.966Z,11.63
2023-04-10T10:41:00.100Z,12.98
2023-04-10T10:43:47.455Z,13.93
2023-04-10T10:46:32.999Z,13.35
2023-04-10T10:49:01.066Z,14.38
2023-04-10T10:51:54.697Z,13.38
2023-04-10T10:54:32.537Z,13.50
2023-04-10T10:57:01.523Z,16.05
2023-04-10T10:59:43.669Z,14.02
2023-04-10T11:02:18.324Z,13.68
2023-04-10T11:04:49.338Z,13.23
2023-04-10T11:07:18.927Z,12.02
2023-04-10T11:09:48.972Z,13.00
2023-04-10T11:12:20.978Z,13.60
2023-04-10T11:15:22.951Z,14.40
2023-04-10T11:17:52.321Z,12.48
2023-04-10T11:20:22.397Z,12.85
2023-04-10T11:23:09.650Z,11.75
2023-04-10T11:25:53.721Z,11.30
2023-04-10T11:28:35.589Z,11.20
2023-04-10T11:31:22.881Z,12.65
2023-04-10T11:34:01.817Z,12.70
2023-04-10T11:36:29.568Z,11.77
2023-04-10T11:39:11.368Z,11.65
2023-04-10T11:41:43.367Z,12.63
2023-04-10T11:44:13.110Z,15.32
2023-04-10T11:46:42.353Z,15.30
2023-04-10T11:51:39.023Z,12.02
2023-04-10T11:54:19.573Z,11.70
2023-04-10T11:57:09.688Z,12.15
2023-04-10T11:59:37.524Z,11.73
2023-04-10T12:02:17.322Z,13.93
2023-04-10T12:04:44.989Z,12.95
2023-04-10T12:07:12.228Z,10.38
2023-04-10T12:09:39.418Z,10.60
2023-04-10T12:12:09.584Z,12.20
2023-04-10T12:14:38.816Z,11.18
2023-04-10T12:17:11.934Z,14.27
2023-04-10T12:19:40.318Z,15.15
2023-04-10T12:22:08.075Z,13.70
2023-04-10T12:24:45.169Z,14.50
2023-04-10T12:27:27.479Z,16.50
2023-04-10T12:29:58.704Z,16.92
2023-04-10T12:32:29.772Z,16.60
2023-04-10T12:34:59.336Z,15.85
2023-04-10T12:37:49.317Z,13.02
2023-04-10T12:40:16.821Z,12.18
2023-04-10T12:42:44.565Z,11.90
2023-04-10T12:45:14.152Z,11.35
2023-04-10T12:47:49.953Z,10.13
2023-04-10T12:50:19.623Z,13.77
2023-04-10T12:55:29.407Z,10.90
2023-04-10T12:57:57.582Z,11.38
2023-04-10T13:00:25.878Z,12.32
2023-04-10T13:02:53.596Z,11.73
2023-04-10T13:05:21.834Z,11.93
2023-04-10T13:07:52.802Z,12.77
2023-04-10T13:10:24.680Z,12.77
2023-04-10T13:12:51.785Z,13.95
2023-04-10T13:15:18.911Z,14.45
2023-04-10T13:17:46.410Z,15.93
2023-04-10T13:20:13.755Z,13.23
2023-04-10T13:22:41.034Z,18.13
2023-04-10T13:25:08.700Z,14.63
2023-04-10T13:27:39.273Z,11.93
2023-04-10T13:30:07.131Z,14.55
2023-04-10T13:32:34.196Z,13.07
2023-04-10T13:35:01.327Z,13.60
2023-04-10T13:37:28.493Z,14.52
2023-04-10T13:39:58.571Z,13.90
2023-04-10T13:42:27.044Z,13.93
2023-04-10T13:44:54.183Z,13.48
2023-04-10T13:47:21.238Z,15.68
2023-04-10T13:49:50.912Z,15.57
2023-04-10T13:52:18.445Z,13.93
2023-04-10T13:54:46.017Z,14.10
2023-04-10T13:57:13.030Z,15.98
2023-04-10T13:59:42.960Z,13.73
2023-04-10T14:02:09.929Z,15.10
2023-04-10T14:04:37.239Z,15.82
2023-04-10T14:07:04.251Z,15.57
2023-04-10T14:09:32.324Z,14.80
2023-04-10T14:11:59.620Z,13.35
2023-04-10T14:14:26.573Z,14.73
2023-04-10T14:16:53.484Z,15.55
2023-04-10T14:19:21.312Z,12.35
2023-04-10T14:21:49.525Z,13.80
2023-04-10T14:24:17.405Z,12.70
2023-04-10T14:26:44.441Z,12.68
2023-04-10T14:29:11.542Z,11.27
2023-04-10T14:31:50.680Z,10.30
2023-04-10T14:34:21.886Z,10.77
2023-04-10T14:36:49.251Z,9.63
2023-04-10T14:39:16.589Z,8.48
2023-04-10T14:41:43.704Z,10.05
2023-04-10T14:44:11.022Z,10.60
2023-04-10T14:46:39.579Z,10.93
2023-04-10T14:49:06.948Z,11.05
2023-04-10T14:51:34.258Z,13.07
2023-04-10T14:54:05.623Z,13.52
2023-04-10T14:56:33.147Z,12.55
2023-04-10T14:59:02.037Z,13.50
2023-04-10T15:03:56.662Z,14.70
2023-04-10T15:06:25.142Z,11.27
2023-04-10T15:08:52.296Z,10.60
2023-04-10T15:11:19.340Z,11.10
2023-04-10T15:13:49.319Z,11.18
2023-04-10T15:16:16.863Z,11.45
2023-04-10T15:18:47.212Z,12.25
2023-04-10T15:21:21.346Z,12.00
2023-04-10T15:23:48.698Z,12.32
2023-04-10T15:26:16.921Z,12.50
2023-04-10T15:28:48.631Z,15.90
2023-04-10T15:31:22.971Z,12.88
2023-04-10T15:33:52.319Z,13.05
2023-04-10T15:36:19.598Z,13.45
2023-04-10T15:38:48.730Z,13.73
2023-04-10T15:41:17.271Z,13.20
2023-04-10T15:43:45.154Z,12.90
2023-04-10T15:46:12.629Z,13.52
2023-04-10T15:48:40.461Z,12.93
2023-04-10T15:51:08.047Z,13.60
2023-04-10T15:53:35.896Z,13.80
2023-04-10T15:56:07.437Z,12.38
2023-04-10T15:58:34.795Z,13.90
2023-04-10T16:01:02.444Z,12.77
2023-04-10T16:03:30.604Z,12.93
2023-04-10T16:05:58.539Z,13.23
2023-04-10T16:08:26.529Z,13.93
2023-04-10T16:10:53.958Z,12.57
2023-04-10T16:13:20.993Z,11.73
2023-04-10T16:15:49.776Z,13.60
2023-04-10T16:18:17.178Z,14.68
2023-04-10T16:20:44.370Z,13.73
2023-04-10T16:23:11.572Z,14.13
2023-04-10T16:25:38.579Z,14.85
2023-04-10T16:28:08.053Z,15.02
2023-04-10T16:30:36.487Z,17.58
2023-04-10T16:33:04.711Z,17.67
2023-04-10T16:35:32.956Z,16.30
2023-04-10T16:38:00.062Z,16.00
2023-04-10T16:40:33.012Z,12.50
2023-04-10T16:43:01.997Z,10.88
2023-04-10T16:45:29.172Z,11.35
2023-04-10T16:47:56.482Z,10.40
2023-04-10T16:50:23.784Z,10.40
2023-04-10T16:52:50.869Z,8.35
2023-04-10T16:55:18.356Z,12.27
2023-04-10T16:57:46.389Z,8.90
2023-04-10T17:00:14.014Z,9.85
2023-04-10T17:02:43.136Z,11.32
2023-04-10T17:05:12.945Z,10.30
2023-04-10T17:07:41.390Z,10.82
2023-04-10T17:13:50.269Z,10.55
2023-04-10T17:17:05.275Z,11.90
2023-04-10T17:20:12.414Z,12.95
2023-04-10T17:22:49.104Z,12.25
2023-04-10T17:25:16.372Z,12.30
2023-04-10T17:27:43.354Z,12.68
2023-04-10T17:30:14.098Z,13.50
2023-04-10T17:32:42.071Z,11.55
2023-04-10T17:35:09.319Z,12.85
2023-04-10T17:37:38.308Z,13.95
2023-04-10T17:40:06.484Z,14.13
2023-04-10T17:42:33.696Z,14.30
2023-04-10T17:45:00.844Z,14.57
2023-04-10T17:47:27.949Z,14.02
2023-04-10T17:49:56.076Z,13.27
2023-04-10T17:52:24.080Z,29.95
2023-04-10T17:54:51.038Z,29.30
2023-04-10T17:57:18.255Z,25.25
2023-04-10T17:59:45.448Z,21.83
2023-04-10T18:02:12.629Z,19.55
2023-04-10T18:04:39.756Z,17.90
2023-04-10T18:07:07.182Z,19.33
2023-04-10T18:09:34.398Z,21.40
2023-04-10T18:12:02.305Z,21.05
2023-04-10T18:14:29.374Z,23.13
2023-04-10T18:16:59.372Z,20.98
2023-04-10T18:19:59.829Z,23.30
2023-04-10T18:22:28.835Z,21.73
2023-04-10T18:24:55.916Z,20.65
2023-04-10T18:27:23.162Z,19.55
2023-04-10T18:29:50.293Z,22.60
2023-04-10T18:32:17.309Z,20.85
2023-04-10T18:34:44.606Z,19.48
2023-04-10T18:37:11.950Z,19.85
2023-04-10T18:39:39.121Z,23.17
2023-04-10T18:42:10.612Z,25.27
2023-04-10T18:44:38.029Z,21.40
2023-04-10T18:47:05.631Z,22.02
2023-04-10T18:49:33.203Z,21.58
2023-04-10T18:52:00.803Z,25.50
2023-04-10T18:54:29.174Z,24.20
2023-04-10T18:56:56.851Z,29.30
2023-04-10T18:59:24.195Z,25.73
2023-04-10T19:01:51.565Z,26.40
2023-04-10T19:04:18.643Z,23.73
2023-04-10T19:06:46.527Z,23.90
2023-04-10T19:09:14.073Z,22.92
2023-04-10T19:11:41.288Z,25.25
2023-04-10T19:14:08.916Z,30.10
2023-04-10T19:16:36.277Z,25.73
2023-04-10T19:19:03.656Z,27.35
2023-04-10T19:21:32.025Z,27.95
2023-04-10T19:23:59.533Z,25.40
2023-04-10T19:26:26.818Z,27.48
2023-04-10T19:28:55.189Z,26.23
2023-04-10T19:31:38.200Z,24.90
2023-04-10T19:34:09.480Z,19.38
2023-04-10T19:36:37.953Z,22.35
2023-04-10T19:39:05.436Z,17.98
2023-04-10T19:41:32.419Z,17.60
2023-04-10T19:43:59.653Z,18.48
2023-04-10T19:46:27.322Z,19.38
2023-04-10T19:48:54.844Z,18.85
2023-04-10T19:51:22.048Z,17.30
2023-04-10T19:53:49.582Z,19.73
2023-04-10T19:56:19.639Z,18.75
2023-04-10T19:58:47.515Z,18.60
2023-04-10T20:01:14.659Z,19.02
2023-04-10T20:03:42.276Z,19.15
2023-04-10T20:06:10.484Z,18.30
2023-04-10T20:08:37.934Z,20.35
2023-04-10T20:11:06.735Z,17.25
2023-04-10T20:13:34.955Z,18.65
2023-04-10T20:16:03.008Z,19.25
2023-04-10T20:18:31.934Z,20.65
2023-04-10T20:20:59.138Z,20.85
2023-04-10T20:23:26.435Z,21.48
2023-04-10T20:25:56.098Z,20.52
2023-04-10T20:28:23.428Z,21.45
2023-04-10T20:30:50.949Z,20.80
2023-04-10T20:33:18.300Z,20.73
2023-04-10T20:35:46.051Z,20.85
2023-04-10T20:38:13.758Z,23.10
2023-04-10T20:40:41.037Z,21.45
2023-04-10T20:43:11.884Z,22.20
2023-04-10T20:45:40.052Z,22.63
2023-04-10T20:48:08.580Z,21.05
2023-04-10T20:50:37.391Z,22.67
2023-04-10T20:53:04.566Z,22.00
2023-04-10T20:55:31.631Z,25.15
2023-04-10T20:57:59.060Z,21.40
2023-04-10T21:00:26.379Z,25.45
2023-04-10T21:02:53.573Z,25.00
2023-04-10T21:05:20.690Z,26.73
2023-04-10T21:07:47.883Z,26.30
2023-04-10T21:10:15.743Z,26.92
2023-04-10T21:12:43.103Z,29.33
2023-04-10T21:15:10.463Z,30.10
2023-04-10T21:17:37.821Z,34.08
2023-04-10T21:20:05.576Z,30.83
2023-04-10T21:22:36.445Z,32.33
2023-04-10T21:25:03.599Z,28.50
2023-04-10T21:27:30.856Z,29.35
2023-04-10T21:29:57.939Z,23.98
2023-04-10T21:32:25.054Z,24.67
2023-04-10T21:34:52.129Z,25.35
2023-04-10T21:37:19.036Z,22.73
2023-04-10T21:39:46.574Z,20.10
2023-04-10T21:42:13.845Z,19.67
2023-04-10T21:44:40.947Z,22.08
2023-04-10T21:47:07.883Z,20.92
2023-04-10T21:49:37.657Z,20.48
2023-04-10T21:52:06.888Z,18.75
2023-04-10T21:57:01.023Z,21.42
2023-04-10T21:59:28.071Z,21.92
2023-04-10T22:01:55.282Z,19.35
2023-04-10T22:04:22.808Z,21.77
2023-04-10T22:06:50.096Z,24.55
2023-04-10T22:09:17.895Z,20.38
2023-04-10T22:11:45.072Z,22.30
2023-04-10T22:14:17.170Z,23.25
2023-04-10T22:16:45.916Z,23.80
2023-04-10T22:19:12.986Z,20.70
2023-04-10T22:21:39.817Z,21.83
2023-04-10T22:24:07.308Z,22.05
2023-04-10T22:26:34.972Z,20.27
2023-04-10T22:29:03.932Z,20.20
2023-04-10T22:31:31.194Z,23.23
2023-04-10T22:33:58.417Z,20.27
2023-04-10T22:36:31.746Z,19.92
2023-04-10T22:38:58.895Z,21.27
2023-04-10T22:41:26.168Z,21.02
2023-04-10T22:43:53.355Z,18.60
2023-04-10T22:46:20.388Z,18.20
2023-04-10T22:48:47.500Z,17.80
2023-04-10T22:51:15.516Z,17.25
2023-04-10T22:53:42.626Z,19.13
2023-04-10T22:56:10.708Z,17.65
2023-04-10T22:58:42.241Z,19.20
2023-04-10T23:01:11.757Z,21.10
2023-04-10T23:03:38.902Z,17.80
2023-04-10T23:06:07.497Z,16.00
2023-04-10T23:08:34.943Z,19.60
2023-04-10T23:11:01.855Z,16.80
2023-04-10T23:13:28.827Z,16.70
2023-04-10T23:15:56.693Z,16.63
2023-04-10T23:18:26.476Z,18.35
2023-04-10T23:20:53.553Z,15.52
2023-04-10T23:23:20.930Z,16.50
2023-04-10T23:25:47.921Z,16.60
2023-04-10T23:28:14.915Z,16.95
2023-04-10T23:30:42.763Z,16.05
2023-04-10T23:33:09.704Z,16.65
2023-04-10T23:35:36.752Z,16.60
2023-04-10T23:38:03.841Z,16.75
2023-04-10T23:40:30.909Z,16.58
2023-04-10T23:42:57.962Z,16.23
2023-04-10T23:45:25.097Z,18.98
2023-04-10T23:47:52.114Z,16.52
2023-04-10T23:50:19.708Z,16.60
2023-04-10T23:52:50.770Z,16.38
2023-04-10T23:55:18.560Z,18.02
2023-04-10T23:57:45.760Z,16.80
